Easton, New Hampshire
Current Conditions -  °F | °C
As of 6:15 PM on Thursday 27 Nov 2014 (Local Time) from K1P1 Reporting Station
Clear Clear  
Wind Chill: 20°   Ceiling: Unl
Heat Index: 28°   Visibility: 10mi
Dew Point: 24°   Wind: 7mph
Humidity: 86%   Direction: 270°W
Pressure: 29.98"   Gusts: NA
Location:  44.1173°N, 71.8999°W
Report Text: K1P1 272315Z AUTO 27006KT 10SM CLR M02/M05 A2998 RMK AO2 T10251046
Loading
Personal Weather Stations






























Interactive Weather Map New forecast layout! Learn more

10-Day Weather Forecast

Advertisements
Track Severe Weather on mobile